WAJJ/DJJ METAR and TAF weather

Enter ICAO airport designator
Station Type Date Time Source
WAJJ METAR 2019/12/07 05:00 UTC NOAA

WAJJ 070500Z 31002KT 9999 FEW012CB SCT013 30/23 Q1006 NOSIG


Station Type Date Time Source
WAJJ Decoded METAR 2019/12/07 05:00 UTC NOAA

Jayapura / Sentani, Indonesia (WAJJ) 02-34S 140-29E 99M
Dec 07, 2019 - 12:00 AM EST / 2019.12.07 0500 UTC
Wind: from the NW (310 degrees) at 2 MPH (2 KT):0
Visibility: greater than 7 mile(s):0
Sky conditions: partly cloudy
Weather: Cumulonimbus clouds observed
Temperature: 86 F (30 C)
Heat index: 93.4 F (34.1 C):1
Dew Point: 73 F (23 C)
Relative Humidity: 66%
Pressure (altimeter): 29.71 in. Hg (1006 hPa)
ob: WAJJ 070500Z 31002KT 9999 FEW012CB SCT013 30/23 Q1006 NOSIG
cycle: 5

Station Type Date Time Source
WAJJ TAF 2013/03/11 12:00 UTC NOAA

TAF WAJJ 111100Z 1112/1212 29006KT 5000 HZ SCT016
TEMPO 1113/1121 4000 RA FEW014CB
BECMG 1200/1202 28012KT 9999
TEMPO 1207/1212 6000 RA FEW014CB

Example: see airport list